sensor_id;sensor_type;location;lat;lon;timestamp;P1;durP1;ratioP1;P2;durP2;ratioP2
71091;SDS011;58751;50.708;7.134;2024-02-21T00:01:56;7.30;;;5.82;;
71091;SDS011;58751;50.708;7.134;2024-02-21T00:04:21;9.57;;;5.50;;
71091;SDS011;58751;50.708;7.134;2024-02-21T00:06:46;13.20;;;5.40;;
71091;SDS011;58751;50.708;7.134;2024-02-21T00:09:12;7.40;;;5.47;;
71091;SDS011;58751;50.708;7.134;2024-02-21T00:11:37;10.97;;;6.17;;
71091;SDS011;58751;50.708;7.134;2024-02-21T00:14:02;13.00;;;5.63;;
71091;SDS011;58751;50.708;7.134;2024-02-21T00:16:29;11.37;;;5.60;;
71091;SDS011;58751;50.708;7.134;2024-02-21T00:18:55;7.95;;;5.50;;
71091;SDS011;58751;50.708;7.134;2024-02-21T00:21:20;13.43;;;5.70;;
71091;SDS011;58751;50.708;7.134;2024-02-21T00:23:45;7.07;;;5.30;;
71091;SDS011;58751;50.708;7.134;2024-02-21T00:26:11;11.10;;;5.67;;
71091;SDS011;58751;50.708;7.134;2024-02-21T00:28:36;9.53;;;5.20;;
71091;SDS011;58751;50.708;7.134;2024-02-21T00:31:02;10.23;;;6.00;;
71091;SDS011;58751;50.708;7.134;2024-02-21T00:33:28;7.17;;;5.20;;
71091;SDS011;58751;50.708;7.134;2024-02-21T00:35:54;9.70;;;5.00;;
71091;SDS011;58751;50.708;7.134;2024-02-21T00:38:19;11.40;;;5.97;;
71091;SDS011;58751;50.708;7.134;2024-02-21T00:40:44;8.20;;;5.23;;
71091;SDS011;58751;50.708;7.134;2024-02-21T00:43:10;9.17;;;5.73;;
71091;SDS011;58751;50.708;7.134;2024-02-21T00:45:35;7.97;;;5.10;;
71091;SDS011;58751;50.708;7.134;2024-02-21T00:48:01;10.33;;;5.60;;
71091;SDS011;58751;50.708;7.134;2024-02-21T00:50:27;6.87;;;4.70;;
71091;SDS011;58751;50.708;7.134;2024-02-21T00:52:53;11.38;;;5.40;;
71091;SDS011;58751;50.708;7.134;2024-02-21T00:55:18;13.90;;;6.33;;
71091;SDS011;58751;50.708;7.134;2024-02-21T00:57:43;9.93;;;5.70;;
71091;SDS011;58751;50.708;7.134;2024-02-21T01:00:09;13.80;;;4.83;;
71091;SDS011;58751;50.708;7.134;2024-02-21T01:02:35;8.90;;;5.28;;
71091;SDS011;58751;50.708;7.134;2024-02-21T01:05:01;6.73;;;5.10;;
71091;SDS011;58751;50.708;7.134;2024-02-21T01:07:28;8.27;;;5.38;;
71091;SDS011;58751;50.708;7.134;2024-02-21T01:09:54;7.82;;;4.75;;
71091;SDS011;58751;50.708;7.134;2024-02-21T01:12:19;12.60;;;5.50;;
71091;SDS011;58751;50.708;7.134;2024-02-21T01:14:44;8.83;;;5.20;;
71091;SDS011;58751;50.708;7.134;2024-02-21T01:17:10;10.13;;;5.53;;
71091;SDS011;58751;50.708;7.134;2024-02-21T01:19:35;9.90;;;5.43;;
71091;SDS011;58751;50.708;7.134;2024-02-21T01:22:00;12.70;;;6.50;;
71091;SDS011;58751;50.708;7.134;2024-02-21T01:24:27;10.80;;;5.70;;
71091;SDS011;58751;50.708;7.134;2024-02-21T01:26:53;10.00;;;5.35;;
71091;SDS011;58751;50.708;7.134;2024-02-21T01:29:18;12.63;;;5.90;;
71091;SDS011;58751;50.708;7.134;2024-02-21T01:31:43;11.10;;;5.90;;
71091;SDS011;58751;50.708;7.134;2024-02-21T01:34:09;11.50;;;5.03;;
71091;SDS011;58751;50.708;7.134;2024-02-21T01:36:34;8.70;;;5.57;;
71091;SDS011;58751;50.708;7.134;2024-02-21T01:38:59;7.70;;;5.13;;
71091;SDS011;58751;50.708;7.134;2024-02-21T01:41:26;9.00;;;5.40;;
71091;SDS011;58751;50.708;7.134;2024-02-21T01:43:52;9.02;;;5.60;;
71091;SDS011;58751;50.708;7.134;2024-02-21T01:46:17;10.07;;;5.60;;
71091;SDS011;58751;50.708;7.134;2024-02-21T01:48:43;8.50;;;5.00;;
71091;SDS011;58751;50.708;7.134;2024-02-21T01:51:08;8.13;;;5.57;;
71091;SDS011;58751;50.708;7.134;2024-02-21T01:53:34;10.97;;;5.40;;
71091;SDS011;58751;50.708;7.134;2024-02-21T01:56:01;8.88;;;5.43;;
71091;SDS011;58751;50.708;7.134;2024-02-21T01:58:28;11.80;;;6.10;;
71091;SDS011;58751;50.708;7.134;2024-02-21T02:00:54;10.57;;;5.55;;
71091;SDS011;58751;50.708;7.134;2024-02-21T02:03:21;10.27;;;5.43;;
71091;SDS011;58751;50.708;7.134;2024-02-21T02:05:47;8.23;;;5.90;;
71091;SDS011;58751;50.708;7.134;2024-02-21T02:08:13;11.93;;;5.68;;
71091;SDS011;58751;50.708;7.134;2024-02-21T02:10:39;6.43;;;4.87;;
71091;SDS011;58751;50.708;7.134;2024-02-21T02:13:05;8.90;;;4.80;;
71091;SDS011;58751;50.708;7.134;2024-02-21T02:15:38;7.20;;;4.80;;
71091;SDS011;58751;50.708;7.134;2024-02-21T02:18:04;9.27;;;5.95;;
71091;SDS011;58751;50.708;7.134;2024-02-21T02:20:30;9.30;;;4.97;;
71091;SDS011;58751;50.708;7.134;2024-02-21T02:22:55;11.60;;;5.83;;
71091;SDS011;58751;50.708;7.134;2024-02-21T02:25:22;9.47;;;4.93;;
71091;SDS011;58751;50.708;7.134;2024-02-21T02:27:47;8.13;;;4.63;;
71091;SDS011;58751;50.708;7.134;2024-02-21T02:30:13;7.30;;;4.30;;
71091;SDS011;58751;50.708;7.134;2024-02-21T02:32:38;8.53;;;5.50;;
71091;SDS011;58751;50.708;7.134;2024-02-21T02:35:04;7.73;;;4.20;;
71091;SDS011;58751;50.708;7.134;2024-02-21T02:37:31;6.82;;;4.60;;
71091;SDS011;58751;50.708;7.134;2024-02-21T02:39:56;8.60;;;5.00;;
71091;SDS011;58751;50.708;7.134;2024-02-21T02:42:23;11.37;;;4.97;;
71091;SDS011;58751;50.708;7.134;2024-02-21T02:44:48;5.70;;;4.82;;
71091;SDS011;58751;50.708;7.134;2024-02-21T02:47:14;8.33;;;4.73;;
71091;SDS011;58751;50.708;7.134;2024-02-21T02:49:39;9.23;;;5.70;;
71091;SDS011;58751;50.708;7.134;2024-02-21T02:52:05;7.10;;;4.10;;
71091;SDS011;58751;50.708;7.134;2024-02-21T02:54:30;11.97;;;4.93;;
71091;SDS011;58751;50.708;7.134;2024-02-21T02:56:55;8.20;;;4.70;;
71091;SDS011;58751;50.708;7.134;2024-02-21T02:59:22;7.23;;;4.30;;
71091;SDS011;58751;50.708;7.134;2024-02-21T03:01:47;15.98;;;5.22;;
71091;SDS011;58751;50.708;7.134;2024-02-21T03:04:13;11.90;;;5.83;;
71091;SDS011;58751;50.708;7.134;2024-02-21T03:06:38;11.53;;;5.13;;
71091;SDS011;58751;50.708;7.134;2024-02-21T03:09:04;11.70;;;5.17;;
71091;SDS011;58751;50.708;7.134;2024-02-21T03:11:29;8.00;;;4.07;;
71091;SDS011;58751;50.708;7.134;2024-02-21T03:13:54;6.40;;;5.03;;
71091;SDS011;58751;50.708;7.134;2024-02-21T03:16:21;9.90;;;5.60;;
71091;SDS011;58751;50.708;7.134;2024-02-21T03:18:47;12.02;;;5.13;;
71091;SDS011;58751;50.708;7.134;2024-02-21T03:21:12;9.33;;;5.33;;
71091;SDS011;58751;50.708;7.134;2024-02-21T03:23:37;10.00;;;5.23;;
71091;SDS011;58751;50.708;7.134;2024-02-21T03:26:03;8.60;;;4.60;;
71091;SDS011;58751;50.708;7.134;2024-02-21T03:28:28;10.00;;;5.00;;
71091;SDS011;58751;50.708;7.134;2024-02-21T03:30:54;14.73;;;5.63;;
71091;SDS011;58751;50.708;7.134;2024-02-21T03:33:20;13.07;;;5.63;;
71091;SDS011;58751;50.708;7.134;2024-02-21T03:35:46;15.18;;;5.15;;
71091;SDS011;58751;50.708;7.134;2024-02-21T03:38:11;8.57;;;4.70;;
71091;SDS011;58751;50.708;7.134;2024-02-21T03:40:36;9.20;;;4.70;;
71091;SDS011;58751;50.708;7.134;2024-02-21T03:43:02;12.00;;;7.10;;
71091;SDS011;58751;50.708;7.134;2024-02-21T03:45:27;8.07;;;4.60;;
71091;SDS011;58751;50.708;7.134;2024-02-21T03:47:53;10.00;;;5.03;;
71091;SDS011;58751;50.708;7.134;2024-02-21T03:50:19;12.67;;;4.87;;
71091;SDS011;58751;50.708;7.134;2024-02-21T03:52:45;12.48;;;4.97;;
71091;SDS011;58751;50.708;7.134;2024-02-21T03:55:10;7.77;;;4.90;;
71091;SDS011;58751;50.708;7.134;2024-02-21T03:57:36;8.70;;;4.80;;
71091;SDS011;58751;50.708;7.134;2024-02-21T04:00:01;7.87;;;4.00;;
71091;SDS011;58751;50.708;7.134;2024-02-21T04:02:27;7.73;;;4.20;;
71091;SDS011;58751;50.708;7.134;2024-02-21T04:04:52;8.07;;;5.00;;
71091;SDS011;58751;50.708;7.134;2024-02-21T04:07:19;9.00;;;4.60;;
71091;SDS011;58751;50.708;7.134;2024-02-21T04:09:44;6.90;;;4.50;;
71091;SDS011;58751;50.708;7.134;2024-02-21T04:12:09;8.57;;;3.90;;
71091;SDS011;58751;50.708;7.134;2024-02-21T04:14:35;8.43;;;4.33;;
71091;SDS011;58751;50.708;7.134;2024-02-21T04:17:00;10.07;;;4.87;;
71091;SDS011;58751;50.708;7.134;2024-02-21T04:19:26;6.47;;;4.00;;
71091;SDS011;58751;50.708;7.134;2024-02-21T04:21:51;9.27;;;4.87;;
71091;SDS011;58751;50.708;7.134;2024-02-21T04:24:18;13.77;;;6.23;;
71091;SDS011;58751;50.708;7.134;2024-02-21T04:26:43;9.45;;;5.72;;
71091;SDS011;58751;50.708;7.134;2024-02-21T04:29:08;9.73;;;6.40;;
71091;SDS011;58751;50.708;7.134;2024-02-21T04:31:34;9.10;;;3.90;;
71091;SDS011;58751;50.708;7.134;2024-02-21T04:33:59;10.70;;;5.47;;
71091;SDS011;58751;50.708;7.134;2024-02-21T04:36:25;7.83;;;4.30;;
71091;SDS011;58751;50.708;7.134;2024-02-21T04:38:50;9.30;;;4.80;;
71091;SDS011;58751;50.708;7.134;2024-02-21T04:41:17;7.27;;;4.43;;
71091;SDS011;58751;50.708;7.134;2024-02-21T04:43:42;15.00;;;5.20;;
71091;SDS011;58751;50.708;7.134;2024-02-21T04:46:07;11.83;;;5.20;;
71091;SDS011;58751;50.708;7.134;2024-02-21T04:48:33;10.53;;;5.17;;
71091;SDS011;58751;50.708;7.134;2024-02-21T04:50:58;9.97;;;4.70;;
71091;SDS011;58751;50.708;7.134;2024-02-21T04:53:24;7.30;;;3.80;;
71091;SDS011;58751;50.708;7.134;2024-02-21T04:55:49;8.40;;;3.90;;
71091;SDS011;58751;50.708;7.134;2024-02-21T04:58:16;8.13;;;4.77;;
71091;SDS011;58751;50.708;7.134;2024-02-21T05:00:41;9.85;;;4.18;;
71091;SDS011;58751;50.708;7.134;2024-02-21T05:03:06;9.27;;;5.00;;
71091;SDS011;58751;50.708;7.134;2024-02-21T05:05:32;9.73;;;4.70;;
71091;SDS011;58751;50.708;7.134;2024-02-21T05:07:57;5.00;;;3.90;;
71091;SDS011;58751;50.708;7.134;2024-02-21T05:10:22;9.07;;;4.40;;
71091;SDS011;58751;50.708;7.134;2024-02-21T05:12:48;12.00;;;5.53;;
71091;SDS011;58751;50.708;7.134;2024-02-21T05:15:15;7.20;;;4.63;;
71091;SDS011;58751;50.708;7.134;2024-02-21T05:17:40;7.05;;;5.00;;
71091;SDS011;58751;50.708;7.134;2024-02-21T05:20:06;7.50;;;3.97;;
71091;SDS011;58751;50.708;7.134;2024-02-21T05:22:32;5.88;;;3.20;;
71091;SDS011;58751;50.708;7.134;2024-02-21T05:24:57;6.03;;;3.90;;
71091;SDS011;58751;50.708;7.134;2024-02-21T05:27:23;11.27;;;5.10;;
71091;SDS011;58751;50.708;7.134;2024-02-21T05:29:48;11.20;;;3.90;;
71091;SDS011;58751;50.708;7.134;2024-02-21T05:32:15;6.23;;;4.00;;
71091;SDS011;58751;50.708;7.134;2024-02-21T05:34:40;6.55;;;3.65;;
71091;SDS011;58751;50.708;7.134;2024-02-21T05:37:06;7.13;;;3.83;;
71091;SDS011;58751;50.708;7.134;2024-02-21T05:39:31;6.80;;;3.77;;
71091;SDS011;58751;50.708;7.134;2024-02-21T05:41:56;14.80;;;4.17;;
71091;SDS011;58751;50.708;7.134;2024-02-21T05:44:22;7.00;;;4.00;;
71091;SDS011;58751;50.708;7.134;2024-02-21T05:46:47;9.33;;;5.10;;
71091;SDS011;58751;50.708;7.134;2024-02-21T05:49:14;11.20;;;4.03;;
71091;SDS011;58751;50.708;7.134;2024-02-21T05:51:39;14.18;;;4.63;;
71091;SDS011;58751;50.708;7.134;2024-02-21T05:54:05;12.07;;;3.83;;
71091;SDS011;58751;50.708;7.134;2024-02-21T05:56:30;5.73;;;3.70;;
71091;SDS011;58751;50.708;7.134;2024-02-21T05:58:55;5.10;;;3.90;;
71091;SDS011;58751;50.708;7.134;2024-02-21T06:01:21;5.47;;;4.40;;
71091;SDS011;58751;50.708;7.134;2024-02-21T06:03:46;8.80;;;4.20;;
71091;SDS011;58751;50.708;7.134;2024-02-21T06:06:13;6.83;;;4.40;;
71091;SDS011;58751;50.708;7.134;2024-02-21T06:08:39;7.28;;;3.90;;
71091;SDS011;58751;50.708;7.134;2024-02-21T06:11:04;4.47;;;3.40;;
71091;SDS011;58751;50.708;7.134;2024-02-21T06:13:30;8.73;;;4.70;;
71091;SDS011;58751;50.708;7.134;2024-02-21T06:15:55;5.17;;;3.43;;
71091;SDS011;58751;50.708;7.134;2024-02-21T06:18:20;10.50;;;4.30;;
71091;SDS011;58751;50.708;7.134;2024-02-21T06:20:46;9.07;;;4.00;;
71091;SDS011;58751;50.708;7.134;2024-02-21T06:23:14;9.10;;;4.70;;
71091;SDS011;58751;50.708;7.134;2024-02-21T06:25:40;9.88;;;4.07;;
71091;SDS011;58751;50.708;7.134;2024-02-21T06:28:06;9.50;;;4.20;;
71091;SDS011;58751;50.708;7.134;2024-02-21T06:30:31;7.80;;;4.20;;
71091;SDS011;58751;50.708;7.134;2024-02-21T06:32:57;6.43;;;3.80;;
71091;SDS011;58751;50.708;7.134;2024-02-21T06:35:22;5.43;;;3.40;;
71091;SDS011;58751;50.708;7.134;2024-02-21T06:37:47;9.10;;;4.60;;
71091;SDS011;58751;50.708;7.134;2024-02-21T06:40:14;4.30;;;3.90;;
71091;SDS011;58751;50.708;7.134;2024-02-21T06:42:40;6.15;;;3.70;;
71091;SDS011;58751;50.708;7.134;2024-02-21T06:45:05;5.73;;;3.50;;
71091;SDS011;58751;50.708;7.134;2024-02-21T06:47:31;8.50;;;3.70;;
71091;SDS011;58751;50.708;7.134;2024-02-21T06:49:56;5.00;;;3.40;;
71091;SDS011;58751;50.708;7.134;2024-02-21T06:52:22;10.10;;;4.43;;
71091;SDS011;58751;50.708;7.134;2024-02-21T06:54:47;16.43;;;5.43;;
71091;SDS011;58751;50.708;7.134;2024-02-21T06:57:14;11.23;;;4.30;;
71091;SDS011;58751;50.708;7.134;2024-02-21T06:59:39;9.80;;;4.97;;
71091;SDS011;58751;50.708;7.134;2024-02-21T07:02:05;10.20;;;4.23;;
71091;SDS011;58751;50.708;7.134;2024-02-21T07:04:30;8.67;;;3.90;;
71091;SDS011;58751;50.708;7.134;2024-02-21T07:06:56;8.47;;;4.80;;
71091;SDS011;58751;50.708;7.134;2024-02-21T07:09:21;9.93;;;3.63;;
71091;SDS011;58751;50.708;7.134;2024-02-21T07:11:46;11.17;;;3.53;;
71091;SDS011;58751;50.708;7.134;2024-02-21T07:14:13;10.20;;;4.40;;
71091;SDS011;58751;50.708;7.134;2024-02-21T07:16:39;6.50;;;3.50;;
71091;SDS011;58751;50.708;7.134;2024-02-21T07:19:04;8.87;;;5.00;;
71091;SDS011;58751;50.708;7.134;2024-02-21T07:21:30;10.97;;;4.43;;
71091;SDS011;58751;50.708;7.134;2024-02-21T07:23:55;8.30;;;4.23;;
71091;SDS011;58751;50.708;7.134;2024-02-21T07:26:20;5.90;;;3.50;;
71091;SDS011;58751;50.708;7.134;2024-02-21T07:28:46;6.57;;;4.30;;
71091;SDS011;58751;50.708;7.134;2024-02-21T07:31:13;6.33;;;4.20;;
71091;SDS011;58751;50.708;7.134;2024-02-21T07:33:38;6.25;;;4.43;;
71091;SDS011;58751;50.708;7.134;2024-02-21T07:36:05;6.93;;;4.10;;
71091;SDS011;58751;50.708;7.134;2024-02-21T07:38:31;7.13;;;4.32;;
71091;SDS011;58751;50.708;7.134;2024-02-21T07:40:57;6.93;;;4.70;;
71091;SDS011;58751;50.708;7.134;2024-02-21T07:43:22;7.37;;;4.30;;
71091;SDS011;58751;50.708;7.134;2024-02-21T07:45:47;8.90;;;4.20;;
71091;SDS011;58751;50.708;7.134;2024-02-21T07:48:14;10.97;;;4.33;;
71091;SDS011;58751;50.708;7.134;2024-02-21T07:50:39;6.45;;;4.75;;
71091;SDS011;58751;50.708;7.134;2024-02-21T07:53:05;9.33;;;4.63;;
71091;SDS011;58751;50.708;7.134;2024-02-21T07:55:30;10.50;;;4.37;;
71091;SDS011;58751;50.708;7.134;2024-02-21T07:57:56;6.37;;;4.43;;
71091;SDS011;58751;50.708;7.134;2024-02-21T08:00:21;7.60;;;5.47;;
71091;SDS011;58751;50.708;7.134;2024-02-21T08:02:47;9.33;;;4.90;;
71091;SDS011;58751;50.708;7.134;2024-02-21T08:05:14;10.55;;;5.25;;
71091;SDS011;58751;50.708;7.134;2024-02-21T08:07:40;8.43;;;4.40;;
71091;SDS011;58751;50.708;7.134;2024-02-21T08:10:06;7.77;;;4.60;;
71091;SDS011;58751;50.708;7.134;2024-02-21T08:12:32;7.80;;;5.72;;
71091;SDS011;58751;50.708;7.134;2024-02-21T08:14:57;10.03;;;4.40;;
71091;SDS011;58751;50.708;7.134;2024-02-21T08:17:23;6.07;;;4.30;;
71091;SDS011;58751;50.708;7.134;2024-02-21T08:19:48;12.43;;;5.20;;
71091;SDS011;58751;50.708;7.134;2024-02-21T08:22:15;7.00;;;4.47;;
71091;SDS011;58751;50.708;7.134;2024-02-21T08:24:40;7.22;;;4.10;;
71091;SDS011;58751;50.708;7.134;2024-02-21T08:27:06;11.70;;;4.73;;
71091;SDS011;58751;50.708;7.134;2024-02-21T08:29:31;6.37;;;3.90;;
71091;SDS011;58751;50.708;7.134;2024-02-21T08:31:56;9.77;;;4.17;;
71091;SDS011;58751;50.708;7.134;2024-02-21T08:34:22;9.90;;;4.27;;
71091;SDS011;58751;50.708;7.134;2024-02-21T08:36:47;13.37;;;5.07;;
71091;SDS011;58751;50.708;7.134;2024-02-21T08:39:14;6.43;;;4.40;;
71091;SDS011;58751;50.708;7.134;2024-02-21T08:41:39;12.25;;;5.38;;
71091;SDS011;58751;50.708;7.134;2024-02-21T08:44:05;11.47;;;4.43;;
71091;SDS011;58751;50.708;7.134;2024-02-21T08:46:30;7.97;;;4.40;;
71091;SDS011;58751;50.708;7.134;2024-02-21T08:48:55;7.23;;;4.90;;
71091;SDS011;58751;50.708;7.134;2024-02-21T08:51:21;11.10;;;4.37;;
71091;SDS011;58751;50.708;7.134;2024-02-21T08:53:46;8.97;;;4.50;;
71091;SDS011;58751;50.708;7.134;2024-02-21T08:56:14;7.65;;;4.32;;
71091;SDS011;58751;50.708;7.134;2024-02-21T08:58:39;11.82;;;5.05;;
71091;SDS011;58751;50.708;7.134;2024-02-21T09:01:05;8.83;;;4.67;;
71091;SDS011;58751;50.708;7.134;2024-02-21T09:03:31;10.03;;;3.80;;
71091;SDS011;58751;50.708;7.134;2024-02-21T09:05:57;11.53;;;4.80;;
71091;SDS011;58751;50.708;7.134;2024-02-21T09:08:22;4.63;;;4.10;;
71091;SDS011;58751;50.708;7.134;2024-02-21T09:10:47;7.60;;;4.53;;
71091;SDS011;58751;50.708;7.134;2024-02-21T09:13:14;8.87;;;4.60;;
71091;SDS011;58751;50.708;7.134;2024-02-21T09:15:40;8.10;;;4.30;;
71091;SDS011;58751;50.708;7.134;2024-02-21T09:18:05;7.73;;;3.80;;
71091;SDS011;58751;50.708;7.134;2024-02-21T09:20:30;10.00;;;4.07;;
71091;SDS011;58751;50.708;7.134;2024-02-21T09:22:56;9.50;;;4.80;;
71091;SDS011;58751;50.708;7.134;2024-02-21T09:25:21;10.07;;;3.70;;
71091;SDS011;58751;50.708;7.134;2024-02-21T09:27:46;7.80;;;4.20;;
71091;SDS011;58751;50.708;7.134;2024-02-21T09:30:13;10.20;;;4.10;;
71091;SDS011;58751;50.708;7.134;2024-02-21T09:32:39;7.78;;;3.58;;
71091;SDS011;58751;50.708;7.134;2024-02-21T09:35:04;7.70;;;4.80;;
71091;SDS011;58751;50.708;7.134;2024-02-21T09:37:30;8.33;;;3.40;;
71091;SDS011;58751;50.708;7.134;2024-02-21T09:39:56;6.47;;;3.83;;
71091;SDS011;58751;50.708;7.134;2024-02-21T09:42:21;9.10;;;4.70;;
71091;SDS011;58751;50.708;7.134;2024-02-21T09:44:46;7.03;;;4.73;;
71091;SDS011;58751;50.708;7.134;2024-02-21T09:47:16;7.80;;;4.43;;
71091;SDS011;58751;50.708;7.134;2024-02-21T09:49:43;12.30;;;4.53;;
71091;SDS011;58751;50.708;7.134;2024-02-21T09:52:08;12.10;;;3.90;;
71091;SDS011;58751;50.708;7.134;2024-02-21T09:54:35;7.18;;;3.97;;
71091;SDS011;58751;50.708;7.134;2024-02-21T09:57:00;5.63;;;3.23;;
71091;SDS011;58751;50.708;7.134;2024-02-21T09:59:26;5.47;;;3.67;;
71091;SDS011;58751;50.708;7.134;2024-02-21T10:01:52;6.30;;;3.83;;
71091;SDS011;58751;50.708;7.134;2024-02-21T10:04:19;6.47;;;3.60;;
71091;SDS011;58751;50.708;7.134;2024-02-21T10:06:45;6.32;;;3.45;;
71091;SDS011;58751;50.708;7.134;2024-02-21T10:09:19;9.63;;;3.40;;
71091;SDS011;58751;50.708;7.134;2024-02-21T10:11:45;12.38;;;4.20;;
71091;SDS011;58751;50.708;7.134;2024-02-21T10:14:10;6.13;;;3.13;;
71091;SDS011;58751;50.708;7.134;2024-02-21T10:16:36;3.77;;;3.40;;
71091;SDS011;58751;50.708;7.134;2024-02-21T10:19:01;5.47;;;3.60;;
71091;SDS011;58751;50.708;7.134;2024-02-21T10:21:28;7.70;;;3.53;;
71091;SDS011;58751;50.708;7.134;2024-02-21T10:23:53;7.78;;;4.00;;
71091;SDS011;58751;50.708;7.134;2024-02-21T10:26:19;8.20;;;3.80;;
71091;SDS011;58751;50.708;7.134;2024-02-21T10:28:44;8.93;;;3.67;;
71091;SDS011;58751;50.708;7.134;2024-02-21T10:31:10;6.10;;;4.10;;
71091;SDS011;58751;50.708;7.134;2024-02-21T10:33:36;6.22;;;3.03;;
71091;SDS011;58751;50.708;7.134;2024-02-21T10:36:08;5.17;;;3.50;;
71091;SDS011;58751;50.708;7.134;2024-02-21T10:38:36;15.00;;;5.28;;
71091;SDS011;58751;50.708;7.134;2024-02-21T10:41:02;9.60;;;3.45;;
71091;SDS011;58751;50.708;7.134;2024-02-21T10:43:28;5.40;;;3.00;;
71091;SDS011;58751;50.708;7.134;2024-02-21T10:45:54;6.10;;;3.20;;
71091;SDS011;58751;50.708;7.134;2024-02-21T10:48:22;6.47;;;3.30;;
71091;SDS011;58751;50.708;7.134;2024-02-21T10:50:53;8.55;;;4.10;;
71091;SDS011;58751;50.708;7.134;2024-02-21T10:53:24;5.10;;;3.75;;
71091;SDS011;58751;50.708;7.134;2024-02-21T10:55:58;10.70;;;4.18;;
71091;SDS011;58751;50.708;7.134;2024-02-21T10:58:28;5.60;;;3.40;;
71091;SDS011;58751;50.708;7.134;2024-02-21T11:00:54;6.00;;;3.50;;
71091;SDS011;58751;50.708;7.134;2024-02-21T11:03:19;4.53;;;3.70;;
71091;SDS011;58751;50.708;7.134;2024-02-21T11:05:45;6.10;;;3.47;;
71091;SDS011;58751;50.708;7.134;2024-02-21T11:08:11;3.20;;;2.77;;
71091;SDS011;58751;50.708;7.134;2024-02-21T11:10:37;5.53;;;3.08;;
71091;SDS011;58751;50.708;7.134;2024-02-21T11:13:08;6.70;;;3.67;;
71091;SDS011;58751;50.708;7.134;2024-02-21T11:15:33;6.57;;;3.22;;
71091;SDS011;58751;50.708;7.134;2024-02-21T11:17:59;3.73;;;3.00;;
71091;SDS011;58751;50.708;7.134;2024-02-21T11:20:31;6.47;;;3.27;;
71091;SDS011;58751;50.708;7.134;2024-02-21T11:22:57;5.60;;;2.95;;
71091;SDS011;58751;50.708;7.134;2024-02-21T11:25:22;5.43;;;3.03;;
71091;SDS011;58751;50.708;7.134;2024-02-21T11:27:48;8.30;;;3.80;;
71091;SDS011;58751;50.708;7.134;2024-02-21T11:30:15;7.17;;;3.27;;
71091;SDS011;58751;50.708;7.134;2024-02-21T11:32:40;7.90;;;3.10;;
71091;SDS011;58751;50.708;7.134;2024-02-21T11:35:06;5.20;;;2.87;;
71091;SDS011;58751;50.708;7.134;2024-02-21T11:37:32;6.40;;;2.67;;
71091;SDS011;58751;50.708;7.134;2024-02-21T11:39:58;6.75;;;2.53;;
71091;SDS011;58751;50.708;7.134;2024-02-21T11:42:24;3.20;;;2.90;;
71091;SDS011;58751;50.708;7.134;2024-02-21T11:44:50;5.68;;;3.42;;
71091;SDS011;58751;50.708;7.134;2024-02-21T11:47:17;5.77;;;2.73;;
71091;SDS011;58751;50.708;7.134;2024-02-21T11:49:43;5.72;;;2.80;;
71091;SDS011;58751;50.708;7.134;2024-02-21T11:52:09;6.50;;;3.05;;
71091;SDS011;58751;50.708;7.134;2024-02-21T11:54:34;6.27;;;2.83;;
71091;SDS011;58751;50.708;7.134;2024-02-21T11:57:00;5.40;;;3.17;;
71091;SDS011;58751;50.708;7.134;2024-02-21T11:59:26;6.17;;;3.13;;
71091;SDS011;58751;50.708;7.134;2024-02-21T12:01:52;6.47;;;3.50;;
71091;SDS011;58751;50.708;7.134;2024-02-21T12:04:19;3.30;;;3.00;;
71091;SDS011;58751;50.708;7.134;2024-02-21T12:06:45;7.63;;;3.03;;
71091;SDS011;58751;50.708;7.134;2024-02-21T12:09:13;5.70;;;2.80;;
71091;SDS011;58751;50.708;7.134;2024-02-21T12:11:39;7.45;;;2.70;;
71091;SDS011;58751;50.708;7.134;2024-02-21T12:14:04;7.30;;;2.97;;
71091;SDS011;58751;50.708;7.134;2024-02-21T12:16:29;6.33;;;3.30;;
71091;SDS011;58751;50.708;7.134;2024-02-21T12:18:55;4.43;;;2.80;;
71091;SDS011;58751;50.708;7.134;2024-02-21T12:21:24;7.20;;;3.20;;
71091;SDS011;58751;50.708;7.134;2024-02-21T12:23:50;7.15;;;3.08;;
71091;SDS011;58751;50.708;7.134;2024-02-21T12:26:15;3.47;;;2.70;;
71091;SDS011;58751;50.708;7.134;2024-02-21T12:28:40;5.83;;;2.87;;
71091;SDS011;58751;50.708;7.134;2024-02-21T12:31:06;7.20;;;2.67;;
71091;SDS011;58751;50.708;7.134;2024-02-21T12:33:31;4.33;;;2.80;;
71091;SDS011;58751;50.708;7.134;2024-02-21T12:35:56;7.57;;;3.50;;
71091;SDS011;58751;50.708;7.134;2024-02-21T12:38:23;6.37;;;3.70;;
71091;SDS011;58751;50.708;7.134;2024-02-21T12:40:49;9.77;;;2.95;;
71091;SDS011;58751;50.708;7.134;2024-02-21T12:43:14;3.43;;;2.63;;
71091;SDS011;58751;50.708;7.134;2024-02-21T12:45:39;4.57;;;3.23;;
71091;SDS011;58751;50.708;7.134;2024-02-21T12:48:05;9.73;;;3.27;;
71091;SDS011;58751;50.708;7.134;2024-02-21T12:50:31;5.00;;;2.93;;
71091;SDS011;58751;50.708;7.134;2024-02-21T12:52:56;5.30;;;3.10;;
71091;SDS011;58751;50.708;7.134;2024-02-21T12:55:23;6.60;;;3.17;;
71091;SDS011;58751;50.708;7.134;2024-02-21T12:57:49;10.27;;;4.05;;
71091;SDS011;58751;50.708;7.134;2024-02-21T13:00:15;4.13;;;3.13;;
71091;SDS011;58751;50.708;7.134;2024-02-21T13:02:41;4.90;;;3.28;;
71091;SDS011;58751;50.708;7.134;2024-02-21T13:05:06;6.73;;;3.70;;
71091;SDS011;58751;50.708;7.134;2024-02-21T13:07:32;9.87;;;3.40;;
71091;SDS011;58751;50.708;7.134;2024-02-21T13:09:57;5.40;;;3.20;;
71091;SDS011;58751;50.708;7.134;2024-02-21T13:12:24;6.03;;;3.30;;
71091;SDS011;58751;50.708;7.134;2024-02-21T13:14:50;3.47;;;2.95;;
71091;SDS011;58751;50.708;7.134;2024-02-21T13:17:15;5.50;;;3.50;;
71091;SDS011;58751;50.708;7.134;2024-02-21T13:19:41;5.33;;;3.50;;
71091;SDS011;58751;50.708;7.134;2024-02-21T13:22:06;6.97;;;3.70;;
71091;SDS011;58751;50.708;7.134;2024-02-21T13:24:32;7.40;;;3.77;;
71091;SDS011;58751;50.708;7.134;2024-02-21T13:26:57;8.47;;;4.43;;
71091;SDS011;58751;50.708;7.134;2024-02-21T13:29:24;6.33;;;3.40;;
71091;SDS011;58751;50.708;7.134;2024-02-21T13:31:49;7.18;;;3.20;;
71091;SDS011;58751;50.708;7.134;2024-02-21T13:34:14;5.80;;;3.67;;
71091;SDS011;58751;50.708;7.134;2024-02-21T13:36:40;10.87;;;3.90;;
71091;SDS011;58751;50.708;7.134;2024-02-21T13:39:05;7.60;;;3.20;;
71091;SDS011;58751;50.708;7.134;2024-02-21T13:41:31;3.93;;;3.40;;
71091;SDS011;58751;50.708;7.134;2024-02-21T13:43:56;12.90;;;3.27;;
71091;SDS011;58751;50.708;7.134;2024-02-21T13:46:23;5.80;;;3.00;;
71091;SDS011;58751;50.708;7.134;2024-02-21T13:48:48;7.38;;;2.97;;
71091;SDS011;58751;50.708;7.134;2024-02-21T13:51:14;14.03;;;4.00;;
71091;SDS011;58751;50.708;7.134;2024-02-21T13:53:39;9.43;;;3.10;;
71091;SDS011;58751;50.708;7.134;2024-02-21T13:56:05;7.17;;;3.57;;
71091;SDS011;58751;50.708;7.134;2024-02-21T13:58:31;6.13;;;3.37;;
71091;SDS011;58751;50.708;7.134;2024-02-21T14:00:56;6.80;;;3.73;;
71091;SDS011;58751;50.708;7.134;2024-02-21T14:03:23;6.50;;;3.10;;
71091;SDS011;58751;50.708;7.134;2024-02-21T14:05:49;5.75;;;3.85;;
71091;SDS011;58751;50.708;7.134;2024-02-21T14:08:14;6.93;;;2.93;;
71091;SDS011;58751;50.708;7.134;2024-02-21T14:10:40;10.37;;;3.73;;
71091;SDS011;58751;50.708;7.134;2024-02-21T14:13:05;5.30;;;3.27;;
71091;SDS011;58751;50.708;7.134;2024-02-21T14:15:30;5.60;;;2.80;;
71091;SDS011;58751;50.708;7.134;2024-02-21T14:17:56;5.37;;;2.70;;
71091;SDS011;58751;50.708;7.134;2024-02-21T14:20:22;3.80;;;2.70;;
71091;SDS011;58751;50.708;7.134;2024-02-21T14:22:48;4.00;;;2.63;;
71091;SDS011;58751;50.708;7.134;2024-02-21T14:25:13;9.23;;;3.97;;
71091;SDS011;58751;50.708;7.134;2024-02-21T14:27:39;6.17;;;3.10;;
71091;SDS011;58751;50.708;7.134;2024-02-21T14:30:05;4.33;;;2.50;;
71091;SDS011;58751;50.708;7.134;2024-02-21T14:32:31;3.60;;;2.22;;
71091;SDS011;58751;50.708;7.134;2024-02-21T14:34:57;6.80;;;2.57;;
71091;SDS011;58751;50.708;7.134;2024-02-21T14:37:23;4.80;;;2.10;;